Time;durP1;ratioP1;P1;durP2;ratioP2;P2;SDS_P1;SDS_P2;PMS_P1;PMS_P2;Temp;Humidity;BMP_temperature;BMP_pressure;BME280_temperature;BME280_humidity;BME280_pressure;Samples;Min_cycle;Max_cycle;Signal;HPM_P1;HPM_P2
2023/12/18 00:02:12;;;;;;;13.40;13.00;;;22.50;54.70;;;;;;4955526;28;20496;-66
2023/12/18 00:04:41;;;;;;;13.60;13.20;;;22.50;54.70;;;;;;4955418;29;20472;-66
2023/12/18 00:07:07;;;;;;;14.07;13.57;;;22.40;54.60;;;;;;4955383;29;20487;-66
2023/12/18 00:09:34;;;;;;;13.63;13.20;;;22.40;54.60;;;;;;4955673;29;20491;-66
2023/12/18 00:12:01;;;;;;;13.20;12.70;;;22.40;54.60;;;;;;4947590;28;20499;-66
2023/12/18 00:14:28;;;;;;;15.03;14.43;;;22.40;54.60;;;;;;4955483;29;20480;-66
2023/12/18 00:16:55;;;;;;;13.67;13.23;;;22.40;54.50;;;;;;4957135;28;20525;-66
2023/12/18 00:19:22;;;;;;;13.70;13.20;;;22.40;54.50;;;;;;4955514;29;20472;-66
2023/12/18 00:21:50;;;;;;;13.10;12.60;;;22.40;54.50;;;;;;4955018;28;20441;-65
2023/12/18 00:24:18;;;;;;;13.43;13.03;;;22.40;54.50;;;;;;5015532;22;20532;-70
2023/12/18 00:26:45;;;;;;;14.23;13.63;;;22.40;54.50;;;;;;5013118;28;20446;-70
2023/12/18 00:29:12;;;;;;;13.97;13.47;;;22.40;54.50;;;;;;5013723;28;20473;-70
2023/12/18 00:31:39;;;;;;;13.93;13.43;;;22.40;54.60;;;;;;5013309;28;20516;-70
2023/12/18 00:34:06;;;;;;;13.80;13.20;;;22.30;54.50;;;;;;5004735;28;20489;-70
2023/12/18 00:36:33;;;;;;;13.60;13.20;;;22.30;54.50;;;;;;5005308;28;20477;-70
2023/12/18 00:39:01;;;;;;;14.47;13.97;;;22.30;54.50;;;;;;5001997;28;20474;-69
2023/12/18 00:41:28;;;;;;;13.97;13.57;;;22.30;54.50;;;;;;5001736;28;20485;-70
2023/12/18 00:43:55;;;;;;;13.53;13.13;;;22.30;54.60;;;;;;4996183;28;20492;-71
2023/12/18 00:46:22;;;;;;;13.70;13.30;;;22.30;54.60;;;;;;5005018;28;20473;-70
2023/12/18 00:48:49;;;;;;;13.47;13.07;;;22.30;54.60;;;;;;5003403;28;20442;-70
2023/12/18 00:51:15;;;;;;;13.40;13.00;;;22.30;54.60;;;;;;5001515;28;20562;-70
2023/12/18 00:53:42;;;;;;;14.50;14.03;;;22.30;54.60;;;;;;5001506;28;20518;-70
2023/12/18 00:56:11;;;;;;;13.60;13.00;;;22.30;54.60;;;;;;5004637;28;20473;-70
2023/12/18 00:58:37;;;;;;;13.47;13.07;;;22.30;54.50;;;;;;5004680;28;20489;-69
2023/12/18 01:01:04;;;;;;;15.07;14.40;;;22.30;55.10;;;;;;5001335;28;20966;-70
2023/12/18 01:03:32;;;;;;;13.50;13.10;;;22.30;54.50;;;;;;5000789;28;20506;-70
2023/12/18 01:05:58;;;;;;;13.27;12.87;;;22.30;54.60;;;;;;5004439;28;20472;-69
2023/12/18 01:08:25;;;;;;;13.00;12.57;;;22.30;54.50;;;;;;5005275;28;20477;-70
2023/12/18 01:10:52;;;;;;;12.70;12.30;;;22.20;54.40;;;;;;5002682;28;21039;-69
2023/12/18 01:13:21;;;;;;;14.10;13.60;;;22.20;54.40;;;;;;5000599;28;20909;-69
2023/12/18 01:15:48;;;;;;;12.53;12.23;;;22.20;54.40;;;;;;5002593;28;20550;-70
2023/12/18 01:18:15;;;;;;;13.17;12.57;;;22.20;54.40;;;;;;5004563;28;20478;-70
2023/12/18 01:20:42;;;;;;;12.43;11.93;;;22.20;54.40;;;;;;5003873;28;20495;-70
2023/12/18 01:23:09;;;;;;;12.57;12.17;;;22.20;54.40;;;;;;5000208;28;20466;-70
2023/12/18 01:25:36;;;;;;;12.30;11.90;;;22.20;54.30;;;;;;5001339;28;20983;-70
2023/12/18 01:28:02;;;;;;;13.10;12.70;;;22.20;54.30;;;;;;5004472;28;20914;-69
2023/12/18 01:30:30;;;;;;;12.40;12.00;;;22.20;54.30;;;;;;5004818;28;20509;-69
2023/12/18 01:32:57;;;;;;;13.00;12.60;;;22.20;54.30;;;;;;5001720;28;20494;-69
2023/12/18 01:35:24;;;;;;;13.30;12.80;;;22.20;54.20;;;;;;5001893;28;20485;-70
2023/12/18 01:37:50;;;;;;;13.80;13.40;;;22.20;54.10;;;;;;5003353;28;20883;-70
2023/12/18 01:40:18;;;;;;;13.23;12.83;;;22.20;54.20;;;;;;5004899;28;20885;-70
2023/12/18 01:42:45;;;;;;;12.60;12.30;;;22.20;54.20;;;;;;5003216;28;20501;-70
2023/12/18 01:45:12;;;;;;;12.37;11.87;;;22.10;54.10;;;;;;5001443;28;20947;-69
2023/12/18 01:47:41;;;;;;;12.83;12.53;;;22.10;54.10;;;;;;5001154;28;20478;-69
2023/12/18 01:50:08;;;;;;;12.20;11.80;;;22.10;54.20;;;;;;5001436;28;20505;-69
2023/12/18 01:52:36;;;;;;;13.20;12.67;;;22.10;54.20;;;;;;5004419;28;20462;-69
2023/12/18 01:55:04;;;;;;;13.20;12.80;;;22.10;54.20;;;;;;5001221;28;20475;-69
2023/12/18 01:57:32;;;;;;;12.43;12.03;;;22.10;54.10;;;;;;4999724;28;20473;-70
2023/12/18 01:59:59;;;;;;;13.30;12.60;;;22.10;54.20;;;;;;5001447;28;20474;-70
2023/12/18 02:02:26;;;;;;;13.00;12.60;;;22.10;54.20;;;;;;5002405;28;20470;-69
2023/12/18 02:04:55;;;;;;;12.20;11.90;;;22.10;54.20;;;;;;5001583;28;20484;-70
2023/12/18 02:07:23;;;;;;;12.80;12.50;;;22.10;54.20;;;;;;4999665;28;20471;-70
2023/12/18 02:09:50;;;;;;;13.90;13.50;;;22.10;54.20;;;;;;5001710;28;20475;-69
2023/12/18 02:12:17;;;;;;;13.20;12.70;;;22.10;54.30;;;;;;5003336;28;20517;-69
2023/12/18 02:14:44;;;;;;;13.10;12.70;;;22.10;54.30;;;;;;4999620;28;20471;-69
2023/12/18 02:17:10;;;;;;;13.17;12.60;;;22.10;54.30;;;;;;5003670;28;20857;-70
2023/12/18 02:19:37;;;;;;;12.43;12.03;;;22.10;54.30;;;;;;5003740;28;21034;-70
2023/12/18 02:22:06;;;;;;;12.70;12.30;;;22.00;54.20;;;;;;4999454;28;20477;-70
2023/12/18 02:24:34;;;;;;;12.33;11.93;;;22.00;54.30;;;;;;5003465;28;20504;-70
2023/12/18 02:27:01;;;;;;;13.37;13.07;;;22.00;54.30;;;;;;5000832;28;20501;-69
2023/12/18 02:29:28;;;;;;;12.40;12.00;;;22.00;54.30;;;;;;5000269;28;20478;-69
2023/12/18 02:31:54;;;;;;;12.90;12.50;;;22.00;54.20;;;;;;5001372;28;20514;-70
2023/12/18 02:34:22;;;;;;;12.40;12.10;;;22.00;54.20;;;;;;5003517;28;20505;-70
2023/12/18 02:36:49;;;;;;;12.53;12.13;;;22.00;54.30;;;;;;5002677;28;20481;-69
2023/12/18 02:39:16;;;;;;;12.50;12.10;;;22.00;54.20;;;;;;5000725;28;20443;-70
2023/12/18 02:41:44;;;;;;;12.37;12.07;;;22.00;54.20;;;;;;4998344;28;20478;-68
2023/12/18 02:44:11;;;;;;;11.77;11.47;;;22.00;54.20;;;;;;4999674;28;21000;-69
2023/12/18 02:46:38;;;;;;;12.93;12.53;;;22.00;54.10;;;;;;5003526;28;20875;-70
2023/12/18 02:49:05;;;;;;;12.70;12.30;;;22.00;54.10;;;;;;5000398;28;20871;-69
2023/12/18 02:51:32;;;;;;;13.10;12.80;;;22.00;54.10;;;;;;5000362;28;20542;-69
2023/12/18 02:53:59;;;;;;;12.40;12.10;;;22.00;54.10;;;;;;5001826;28;20506;-70
2023/12/18 02:56:26;;;;;;;12.70;12.40;;;22.00;54.10;;;;;;5003356;28;20474;-70
2023/12/18 02:58:55;;;;;;;12.63;12.23;;;22.00;54.10;;;;;;5001839;28;20521;-70
2023/12/18 03:01:22;;;;;;;14.17;13.77;;;22.00;54.10;;;;;;4993968;28;20435;-70
2023/12/18 03:03:48;;;;;;;12.97;12.63;;;21.90;54.00;;;;;;5002443;28;21015;-69
2023/12/18 03:06:15;;;;;;;13.80;13.40;;;21.90;54.00;;;;;;5000046;28;20863;-70
2023/12/18 03:08:42;;;;;;;13.27;12.87;;;22.00;54.00;;;;;;4999992;28;20478;-69
2023/12/18 03:11:10;;;;;;;13.50;13.20;;;21.90;54.00;;;;;;4989711;28;20509;-69
2023/12/18 03:13:37;;;;;;;12.50;12.20;;;21.90;53.90;;;;;;5004115;28;20490;-70
2023/12/18 03:16:06;;;;;;;12.30;12.00;;;21.90;53.90;;;;;;5001204;28;20489;-70
2023/12/18 03:18:34;;;;;;;12.67;12.37;;;21.90;53.90;;;;;;5002703;28;20458;-70
2023/12/18 03:21:00;;;;;;;14.00;13.60;;;21.90;53.90;;;;;;5005271;28;20473;-70
2023/12/18 03:23:27;;;;;;;13.43;13.03;;;21.90;53.90;;;;;;5006631;28;20497;-70
2023/12/18 03:25:54;;;;;;;13.73;13.33;;;21.90;53.90;;;;;;5004836;28;20476;-70
2023/12/18 03:28:21;;;;;;;14.13;13.70;;;21.90;53.90;;;;;;5003375;28;20475;-69
2023/12/18 03:30:48;;;;;;;15.00;14.50;;;21.90;53.90;;;;;;5003663;28;20506;-70
2023/12/18 03:33:16;;;;;;;13.80;13.40;;;21.90;53.90;;;;;;5006527;28;20552;-70
2023/12/18 03:35:43;;;;;;;13.80;13.40;;;21.90;53.90;;;;;;5006969;28;20946;-70
2023/12/18 03:38:10;;;;;;;13.00;12.60;;;21.80;53.90;;;;;;5003912;28;20993;-70
2023/12/18 03:40:37;;;;;;;12.90;12.60;;;21.90;54.00;;;;;;5002884;28;20857;-70
2023/12/18 03:43:04;;;;;;;12.50;12.20;;;21.80;53.90;;;;;;5005679;28;20497;-70
2023/12/18 03:45:31;;;;;;;12.53;12.23;;;21.90;53.90;;;;;;5006395;28;20477;-70
2023/12/18 03:47:58;;;;;;;13.90;13.50;;;21.80;53.90;;;;;;5004280;28;20473;-69
2023/12/18 03:50:26;;;;;;;12.10;11.80;;;21.80;53.90;;;;;;5002192;28;20478;-70
2023/12/18 03:52:53;;;;;;;12.70;12.37;;;21.80;53.90;;;;;;5003757;28;20517;-70
2023/12/18 03:55:20;;;;;;;12.97;12.67;;;21.80;53.90;;;;;;5006196;28;20478;-70
2023/12/18 03:57:47;;;;;;;12.50;12.20;;;21.80;53.90;;;;;;5005652;28;20937;-70
2023/12/18 04:00:14;;;;;;;13.80;13.30;;;21.80;53.80;;;;;;5001912;28;20471;-69
2023/12/18 04:02:41;;;;;;;13.57;13.13;;;21.80;53.90;;;;;;5002475;28;20526;-70
2023/12/18 04:05:09;;;;;;;14.00;13.60;;;21.80;53.80;;;;;;5005774;28;20469;-69
2023/12/18 04:07:37;;;;;;;12.17;11.87;;;21.80;53.90;;;;;;4998699;28;20489;-70
2023/12/18 04:10:04;;;;;;;14.43;14.13;;;21.80;53.90;;;;;;5004931;28;20481;-68
2023/12/18 04:12:31;;;;;;;14.10;13.70;;;21.80;53.80;;;;;;5005853;28;20553;-70
2023/12/18 04:14:58;;;;;;;14.03;13.63;;;21.80;53.80;;;;;;5004389;28;20469;-69
2023/12/18 04:17:25;;;;;;;14.27;13.77;;;21.80;53.80;;;;;;5001882;28;20482;-70
2023/12/18 04:19:52;;;;;;;15.13;14.63;;;21.80;53.80;;;;;;5002178;28;20485;-69
2023/12/18 04:22:19;;;;;;;13.57;13.17;;;21.80;53.70;;;;;;5002336;28;20467;-70
2023/12/18 04:24:47;;;;;;;14.07;13.70;;;21.80;53.70;;;;;;5002461;28;20482;-69
2023/12/18 04:27:14;;;;;;;13.33;13.00;;;21.80;53.70;;;;;;5002208;28;20499;-69
2023/12/18 04:29:41;;;;;;;13.67;13.33;;;21.80;53.70;;;;;;5001962;28;20474;-70
2023/12/18 04:32:08;;;;;;;13.23;12.90;;;21.80;53.70;;;;;;5005271;28;20562;-70
2023/12/18 04:34:35;;;;;;;13.70;13.10;;;21.80;53.70;;;;;;5002729;28;20990;-70
2023/12/18 04:37:01;;;;;;;13.33;12.93;;;21.70;53.60;;;;;;5003343;28;20865;-70
2023/12/18 04:39:28;;;;;;;12.87;12.57;;;21.70;53.60;;;;;;5002267;28;20443;-69
2023/12/18 04:41:56;;;;;;;13.60;13.20;;;21.70;53.70;;;;;;5003172;28;20477;-70
2023/12/18 04:44:24;;;;;;;14.50;14.10;;;21.70;53.70;;;;;;5002340;28;21013;-69
2023/12/18 04:46:51;;;;;;;13.33;13.03;;;21.70;53.70;;;;;;5002544;28;20958;-70
2023/12/18 04:49:18;;;;;;;13.40;13.10;;;21.70;53.60;;;;;;5005477;28;20461;-70
2023/12/18 04:51:45;;;;;;;14.00;13.60;;;21.70;53.60;;;;;;4993962;28;20507;-70
2023/12/18 04:54:12;;;;;;;13.37;12.97;;;21.70;53.60;;;;;;5004583;28;20469;-70
2023/12/18 04:56:39;;;;;;;13.23;12.83;;;21.70;53.60;;;;;;5005085;28;21007;-70
2023/12/18 04:59:07;;;;;;;12.50;12.20;;;21.70;53.60;;;;;;5002640;28;20469;-69
2023/12/18 05:01:34;;;;;;;15.13;14.73;;;21.70;53.60;;;;;;4999890;28;20492;-70
2023/12/18 05:04:01;;;;;;;13.50;13.20;;;21.70;53.60;;;;;;5002978;28;20496;-70
2023/12/18 05:06:29;;;;;;;13.57;13.23;;;21.70;53.70;;;;;;5001478;28;20466;-69
2023/12/18 05:08:56;;;;;;;14.50;14.00;;;21.70;53.60;;;;;;5002753;28;20481;-70
2023/12/18 05:11:25;;;;;;;12.43;12.13;;;21.70;53.70;;;;;;4997442;28;20512;-70
2023/12/18 05:13:52;;;;;;;13.37;13.07;;;21.70;53.70;;;;;;5003627;28;20494;-70
2023/12/18 05:16:20;;;;;;;13.60;13.20;;;21.70;53.70;;;;;;5004735;28;20450;-70
2023/12/18 05:18:48;;;;;;;13.97;13.37;;;21.70;53.80;;;;;;5005113;28;20481;-70
2023/12/18 05:21:15;;;;;;;15.93;15.50;;;21.70;53.80;;;;;;4994124;28;20447;-69
2023/12/18 05:23:42;;;;;;;15.20;14.70;;;21.70;53.80;;;;;;5000482;28;20497;-70
2023/12/18 05:26:09;;;;;;;15.37;14.97;;;21.70;53.80;;;;;;5001804;28;20473;-69
2023/12/18 05:28:36;;;;;;;16.80;16.30;;;21.70;53.80;;;;;;5001519;28;20471;-70
2023/12/18 05:31:03;;;;;;;18.43;17.93;;;21.70;53.80;;;;;;5003590;28;20474;-70
2023/12/18 05:33:30;;;;;;;18.40;17.90;;;21.60;53.70;;;;;;5005006;28;20501;-69
2023/12/18 05:35:57;;;;;;;16.77;16.37;;;21.60;53.80;;;;;;5002550;28;20443;-69
2023/12/18 05:38:24;;;;;;;16.73;16.23;;;21.70;53.90;;;;;;4994367;28;20474;-70
2023/12/18 05:40:51;;;;;;;17.50;17.00;;;21.70;53.90;;;;;;5000877;28;20499;-70
2023/12/18 05:43:18;;;;;;;16.77;16.37;;;21.60;53.80;;;;;;5004115;28;20494;-69
2023/12/18 05:45:45;;;;;;;18.53;18.03;;;21.60;53.90;;;;;;5004359;28;20480;-70
2023/12/18 05:48:12;;;;;;;19.80;19.30;;;21.60;53.80;;;;;;5000509;28;20843;-69
2023/12/18 05:50:40;;;;;;;18.07;17.57;;;21.60;53.80;;;;;;5001076;28;20865;-70
2023/12/18 05:53:07;;;;;;;18.93;18.33;;;21.60;53.80;;;;;;5003343;28;20514;-71
2023/12/18 05:55:34;;;;;;;17.33;16.87;;;21.60;53.70;;;;;;5004268;28;20473;-68
2023/12/18 05:58:00;;;;;;;17.70;17.20;;;21.60;53.70;;;;;;5002258;28;20496;-69
2023/12/18 06:00:27;;;;;;;18.10;17.60;;;21.60;53.70;;;;;;4994358;28;20475;-69
2023/12/18 06:02:54;;;;;;;18.80;18.30;;;21.60;53.70;;;;;;5000828;28;20498;-69
2023/12/18 06:05:21;;;;;;;18.83;18.23;;;21.60;53.70;;;;;;5003713;28;20484;-69
2023/12/18 06:07:49;;;;;;;18.63;18.13;;;21.60;53.70;;;;;;5003695;28;20481;-69
2023/12/18 06:10:16;;;;;;;16.50;16.10;;;21.60;53.70;;;;;;4999820;28;20496;-69
2023/12/18 06:12:43;;;;;;;16.43;15.93;;;21.60;53.70;;;;;;4993113;28;20515;-69
2023/12/18 06:15:10;;;;;;;16.70;16.30;;;21.60;53.70;;;;;;5002293;28;20481;-69
2023/12/18 06:17:37;;;;;;;16.10;15.70;;;21.60;53.70;;;;;;5003654;28;20478;-69
2023/12/18 06:20:05;;;;;;;16.53;16.13;;;21.60;53.80;;;;;;5001613;28;20481;-69
2023/12/18 06:22:32;;;;;;;15.80;15.40;;;21.60;53.70;;;;;;5003496;28;20521;-69
2023/12/18 06:25:00;;;;;;;15.50;15.10;;;21.50;53.70;;;;;;5002630;28;20446;-68
2023/12/18 06:27:27;;;;;;;15.70;15.30;;;21.60;53.80;;;;;;5000522;28;20935;-68
2023/12/18 06:29:54;;;;;;;16.03;15.53;;;21.60;53.80;;;;;;5000590;28;20477;-68
2023/12/18 06:32:21;;;;;;;18.37;17.80;;;21.50;53.70;;;;;;5003398;28;20505;-68
2023/12/18 06:34:48;;;;;;;16.93;16.43;;;21.50;53.70;;;;;;4996004;28;20482;-68
2023/12/18 06:37:15;;;;;;;16.60;16.20;;;21.50;53.70;;;;;;5003208;28;20466;-68
2023/12/18 06:39:41;;;;;;;16.77;16.27;;;21.50;53.70;;;;;;5003442;28;20984;-68
2023/12/18 06:42:10;;;;;;;16.27;15.80;;;21.50;53.70;;;;;;5001025;28;21081;-68
2023/12/18 06:44:37;;;;;;;15.73;15.27;;;21.50;53.80;;;;;;4999349;28;20494;-68
2023/12/18 06:47:04;;;;;;;16.97;16.47;;;21.50;53.80;;;;;;5001621;28;20547;-69
2023/12/18 06:49:31;;;;;;;15.20;14.80;;;21.50;53.80;;;;;;5002855;28;20473;-68
2023/12/18 06:51:58;;;;;;;16.43;16.03;;;21.60;54.30;;;;;;5002091;28;20516;-70
2023/12/18 06:54:26;;;;;;;16.17;15.77;;;21.60;54.40;;;;;;5000471;28;20491;-70
2023/12/18 06:56:52;;;;;;;18.10;17.60;;;21.60;54.00;;;;;;5003910;28;20446;-70
2023/12/18 06:59:21;;;;;;;16.07;15.47;;;21.60;53.90;;;;;;5006918;28;20485;-70
2023/12/18 07:01:48;;;;;;;16.87;16.37;;;21.60;54.00;;;;;;5007018;28;20477;-70
2023/12/18 07:04:15;;;;;;;17.10;16.60;;;21.60;54.00;;;;;;5003172;28;20886;-70
2023/12/18 07:06:41;;;;;;;16.53;16.03;;;21.60;54.00;;;;;;5003606;28;20567;-69
2023/12/18 07:09:09;;;;;;;16.60;16.10;;;21.60;54.00;;;;;;5005616;28;20482;-69
2023/12/18 07:11:36;;;;;;;15.80;15.30;;;21.60;54.00;;;;;;5006759;28;20446;-70
2023/12/18 07:14:03;;;;;;;17.10;16.50;;;21.60;54.00;;;;;;5005218;28;20512;-70
2023/12/18 07:16:31;;;;;;;17.67;17.13;;;21.60;54.00;;;;;;5002795;28;20471;-69
2023/12/18 07:18:58;;;;;;;17.73;17.13;;;21.60;54.00;;;;;;5003777;28;20467;-69
2023/12/18 07:21:25;;;;;;;17.57;17.07;;;21.60;54.00;;;;;;5006591;28;20481;-69
2023/12/18 07:23:52;;;;;;;18.23;17.70;;;21.60;54.00;;;;;;5006436;28;20493;-69
2023/12/18 07:26:19;;;;;;;16.90;16.30;;;21.60;54.00;;;;;;5003143;28;20475;-71
2023/12/18 07:28:45;;;;;;;16.67;16.17;;;21.60;54.20;;;;;;5002381;28;20943;-73
2023/12/18 07:31:12;;;;;;;16.63;16.13;;;21.60;54.70;;;;;;5005723;28;20443;-67
2023/12/18 07:33:41;;;;;;;17.77;17.27;;;21.70;54.60;;;;;;5006422;28;20968;-69
2023/12/18 07:36:08;;;;;;;18.13;17.47;;;21.70;54.70;;;;;;5004231;28;20500;-70
2023/12/18 07:38:35;;;;;;;17.47;16.33;;;21.70;54.80;;;;;;5002851;28;20482;-69
2023/12/18 07:41:03;;;;;;;18.60;17.90;;;21.70;54.90;;;;;;5003397;28;20978;-69
2023/12/18 07:43:30;;;;;;;16.90;16.40;;;21.70;55.00;;;;;;5005668;28;20958;-69
2023/12/18 07:45:57;;;;;;;17.27;16.67;;;21.70;55.00;;;;;;5005637;28;20442;-69
2023/12/18 07:48:25;;;;;;;17.20;16.57;;;21.70;55.10;;;;;;5002729;28;20482;-70
2023/12/18 07:50:55;;;;;;;18.07;17.47;;;21.80;55.30;;;;;;5002266;28;20505;-69
2023/12/18 07:53:22;;;;;;;17.13;16.63;;;21.80;55.50;;;;;;5002555;28;20483;-70
2023/12/18 07:55:49;;;;;;;18.77;17.93;;;21.80;55.60;;;;;;5002687;28;20478;-70
2023/12/18 07:58:16;;;;;;;18.57;18.07;;;21.80;55.70;;;;;;5005418;28;20949;-69
2023/12/18 08:00:43;;;;;;;18.73;17.83;;;21.80;55.80;;;;;;5006076;28;20446;-69
2023/12/18 08:03:10;;;;;;;18.07;17.47;;;21.80;55.90;;;;;;5000729;28;20486;-69
2023/12/18 08:05:37;;;;;;;17.23;16.73;;;21.80;55.90;;;;;;5004650;28;20480;-70
2023/12/18 08:08:06;;;;;;;19.17;18.60;;;21.80;56.10;;;;;;5004425;28;20470;-66
2023/12/18 08:10:33;;;;;;;18.90;18.30;;;21.90;56.30;;;;;;5002602;28;20470;-66
2023/12/18 08:12:59;;;;;;;17.93;17.33;;;21.90;56.50;;;;;;5002654;28;20514;-66
2023/12/18 08:15:26;;;;;;;19.40;18.70;;;21.90;56.30;;;;;;5004886;28;20489;-68
2023/12/18 08:17:53;;;;;;;18.77;18.17;;;21.90;56.30;;;;;;5005672;28;20498;-67
2023/12/18 08:20:20;;;;;;;19.33;18.53;;;22.00;56.40;;;;;;5005460;28;20469;-66
2023/12/18 08:22:47;;;;;;;18.30;17.80;;;22.00;56.30;;;;;;5005303;28;20469;-65
2023/12/18 08:25:16;;;;;;;19.07;18.07;;;22.00;56.30;;;;;;5002251;28;20816;-68
2023/12/18 08:27:42;;;;;;;19.57;18.97;;;22.00;56.20;;;;;;5002092;28;20474;-65
2023/12/18 08:30:11;;;;;;;19.63;19.03;;;22.00;56.10;;;;;;5003798;28;20479;-66
2023/12/18 08:32:39;;;;;;;17.37;16.77;;;22.00;56.10;;;;;;5005072;28;20895;-65
2023/12/18 08:35:07;;;;;;;19.63;19.03;;;22.10;56.10;;;;;;5003156;28;20445;-66
2023/12/18 08:37:34;;;;;;;18.67;18.07;;;22.10;56.10;;;;;;5002044;28;20481;-66
2023/12/18 08:40:01;;;;;;;20.27;19.67;;;22.10;56.10;;;;;;5002386;28;20482;-66
2023/12/18 08:42:29;;;;;;;20.17;19.57;;;22.10;56.00;;;;;;5005033;28;20438;-65
2023/12/18 08:44:56;;;;;;;20.30;19.60;;;22.10;55.90;;;;;;5005209;28;20936;-68
2023/12/18 08:47:23;;;;;;;18.50;18.00;;;22.20;56.10;;;;;;5001128;28;21084;-66
2023/12/18 08:49:50;;;;;;;19.67;19.03;;;22.20;55.90;;;;;;5001646;28;20815;-65
2023/12/18 08:52:17;;;;;;;19.57;18.63;;;22.20;55.90;;;;;;5004241;28;20498;-66
2023/12/18 08:54:44;;;;;;;19.60;19.00;;;22.20;55.80;;;;;;5004375;28;20448;-67
2023/12/18 08:57:11;;;;;;;19.00;18.40;;;22.20;55.70;;;;;;5002818;28;20480;-66
2023/12/18 08:59:39;;;;;;;19.30;18.73;;;22.30;55.80;;;;;;5001430;28;20447;-67
2023/12/18 09:02:06;;;;;;;18.43;17.73;;;22.30;55.60;;;;;;5002569;28;20486;-66
2023/12/18 09:04:33;;;;;;;17.83;17.33;;;22.30;55.50;;;;;;5004103;28;20497;-67
2023/12/18 09:07:00;;;;;;;18.23;17.73;;;22.30;55.40;;;;;;5004129;28;20457;-68
2023/12/18 09:09:27;;;;;;;20.00;18.60;;;22.40;55.10;;;;;;5001022;28;20482;-68
2023/12/18 09:11:54;;;;;;;20.57;19.77;;;22.40;54.70;;;;;;5001442;28;20796;-68
2023/12/18 09:14:21;;;;;;;17.70;17.20;;;22.40;54.50;;;;;;5004094;28;20513;-69
2023/12/18 09:16:49;;;;;;;19.03;18.43;;;22.30;54.30;;;;;;5003592;28;20497;-71
2023/12/18 09:19:16;;;;;;;17.93;17.43;;;22.30;54.20;;;;;;5001764;28;20446;-69
2023/12/18 09:21:43;;;;;;;16.13;15.63;;;22.30;54.10;;;;;;5003020;28;20434;-71
2023/12/18 09:24:10;;;;;;;17.83;17.23;;;22.30;54.00;;;;;;5008406;28;20465;-70
2023/12/18 09:26:37;;;;;;;17.10;16.60;;;22.30;54.20;;;;;;5001020;28;20470;-71
2023/12/18 09:29:04;;;;;;;18.93;18.13;;;22.30;54.20;;;;;;5000808;28;20450;-70
2023/12/18 09:31:31;;;;;;;19.03;18.43;;;22.30;54.20;;;;;;5000909;28;20475;-71
2023/12/18 09:33:59;;;;;;;18.23;17.73;;;22.30;54.10;;;;;;5000674;28;20483;-70
2023/12/18 09:36:26;;;;;;;17.60;17.10;;;22.30;54.10;;;;;;4993212;28;20448;-69
2023/12/18 09:38:53;;;;;;;19.30;18.70;;;22.30;54.00;;;;;;5000915;28;20481;-69
2023/12/18 09:41:24;;;;;;;18.40;17.90;;;22.40;54.20;;;;;;5003683;28;20473;-69
2023/12/18 09:43:52;;;;;;;19.17;18.57;;;22.40;53.90;;;;;;5003862;28;20498;-70
2023/12/18 09:46:22;;;;;;;18.77;18.10;;;22.40;53.90;;;;;;4997615;28;20438;-70
2023/12/18 09:48:49;;;;;;;19.40;18.80;;;22.40;54.00;;;;;;5003958;28;20473;-70
2023/12/18 09:51:21;;;;;;;18.00;17.40;;;22.40;54.10;;;;;;5001481;28;20481;-68
2023/12/18 09:53:49;;;;;;;17.17;16.63;;;22.40;53.70;;;;;;5000442;28;21003;-70
2023/12/18 09:56:18;;;;;;;18.77;18.27;;;22.50;54.00;;;;;;5000606;28;20466;-68
2023/12/18 09:58:47;;;;;;;20.70;19.90;;;22.60;54.10;;;;;;5000610;28;20474;-69
2023/12/18 10:01:14;;;;;;;18.80;18.03;;;22.60;54.20;;;;;;5002387;28;20454;-69
2023/12/18 10:03:41;;;;;;;18.67;18.07;;;22.60;54.00;;;;;;5003631;28;20494;-68
2023/12/18 10:06:08;;;;;;;19.10;18.40;;;22.60;54.00;;;;;;4994525;28;20976;-69
2023/12/18 10:08:37;;;;;;;19.47;18.87;;;22.60;54.10;;;;;;5000370;28;20502;-70
2023/12/18 10:11:04;;;;;;;18.10;17.50;;;22.60;54.20;;;;;;5000717;28;20474;-69
2023/12/18 10:13:31;;;;;;;20.63;19.93;;;22.60;54.20;;;;;;5003519;28;20492;-71
2023/12/18 10:15:58;;;;;;;19.90;19.30;;;22.60;54.00;;;;;;5003125;28;20473;-70
2023/12/18 10:18:26;;;;;;;17.47;16.87;;;22.60;54.30;;;;;;4999122;28;20505;-70
2023/12/18 10:20:54;;;;;;;18.30;17.50;;;22.60;54.20;;;;;;5000247;28;20474;-69
2023/12/18 10:23:21;;;;;;;18.57;18.07;;;22.70;54.30;;;;;;5002631;28;20466;-69
2023/12/18 10:25:49;;;;;;;17.80;17.20;;;22.70;54.20;;;;;;5002929;28;20473;-68
2023/12/18 10:28:17;;;;;;;18.43;17.83;;;22.70;54.20;;;;;;5003336;28;20453;-69
2023/12/18 10:30:44;;;;;;;18.30;17.70;;;22.70;54.10;;;;;;5004681;28;20453;-70
2023/12/18 10:33:13;;;;;;;18.10;17.60;;;22.70;54.00;;;;;;5005408;28;20521;-69
2023/12/18 10:35:40;;;;;;;17.90;17.43;;;22.80;54.90;;;;;;5003305;28;20556;-67
2023/12/18 10:38:09;;;;;;;19.40;18.90;;;22.80;55.20;;;;;;5006375;28;20469;-67
2023/12/18 10:40:40;;;;;;;17.50;17.00;;;22.90;55.30;;;;;;5004002;28;20450;-69
2023/12/18 10:43:21;;;;;;;18.17;17.57;;;22.90;55.00;;;;;;5004356;28;20486;-67
2023/12/18 10:45:52;;;;;;;17.20;16.60;;;22.90;54.70;;;;;;5006722;28;20454;-67
2023/12/18 10:48:21;;;;;;;18.23;17.63;;;22.90;54.70;;;;;;5003404;28;20442;-67
2023/12/18 10:50:55;;;;;;;18.00;17.50;;;22.90;54.40;;;;;;5003883;28;20493;-67
2023/12/18 10:53:25;;;;;;;17.50;17.00;;;22.90;54.40;;;;;;5006532;28;20485;-67
2023/12/18 10:56:03;;;;;;;18.17;17.60;;;22.90;54.50;;;;;;5007320;28;20450;-72
2023/12/18 10:58:35;;;;;;;19.93;19.17;;;23.00;54.80;;;;;;4997359;28;20473;-70
2023/12/18 11:01:04;;;;;;;17.43;16.93;;;23.00;54.40;;;;;;5003569;28;20501;-69
2023/12/18 11:03:34;;;;;;;16.83;16.33;;;23.00;54.30;;;;;;5006981;28;21024;-71
2023/12/18 11:06:02;;;;;;;19.50;18.90;;;23.10;54.30;;;;;;5006599;28;20819;-71
2023/12/18 11:08:30;;;;;;;18.70;18.03;;;23.00;54.10;;;;;;4995977;28;20883;-66
2023/12/18 11:10:58;;;;;;;17.80;17.30;;;23.00;53.90;;;;;;5003423;28;20455;-67
2023/12/18 11:13:27;;;;;;;19.37;18.77;;;23.10;53.90;;;;;;5006251;28;20478;-67
2023/12/18 11:16:06;;;;;;;20.70;19.80;;;23.10;53.60;;;;;;5004161;28;20477;-67
2023/12/18 11:18:45;;;;;;;18.80;18.00;;;23.00;53.50;;;;;;4996069;28;20475;-67
2023/12/18 11:21:12;;;;;;;19.60;19.00;;;23.10;53.40;;;;;;5004525;28;20478;-67
2023/12/18 11:23:40;;;;;;;17.53;17.03;;;23.10;53.40;;;;;;5006566;28;20498;-67
2023/12/18 11:26:10;;;;;;;18.20;17.70;;;23.00;53.40;;;;;;5005279;28;20448;-68
2023/12/18 11:28:37;;;;;;;18.37;17.67;;;23.00;54.00;;;;;;5003210;28;20960;-67
2023/12/18 11:31:08;;;;;;;19.03;18.43;;;23.10;54.40;;;;;;5003155;28;20513;-67
2023/12/18 11:33:35;;;;;;;18.03;17.43;;;23.00;54.30;;;;;;5006271;28;20485;-69
2023/12/18 11:36:02;;;;;;;16.73;16.23;;;23.00;54.30;;;;;;5006530;28;20485;-69
2023/12/18 11:38:32;;;;;;;17.40;16.80;;;23.10;54.50;;;;;;5007880;28;20450;-69
2023/12/18 11:41:00;;;;;;;18.30;17.80;;;23.10;54.40;;;;;;5003098;28;20477;-69
2023/12/18 11:43:41;;;;;;;19.03;18.40;;;23.00;54.10;;;;;;5005734;28;20462;-68
2023/12/18 11:46:11;;;;;;;16.90;16.40;;;23.10;53.80;;;;;;5004091;28;20481;-68
2023/12/18 11:48:41;;;;;;;17.93;17.33;;;23.10;53.80;;;;;;4998981;28;20799;-68
2023/12/18 11:51:09;;;;;;;16.83;16.00;;;23.10;53.70;;;;;;5004451;28;20453;-68
2023/12/18 11:53:38;;;;;;;28.10;23.90;;;23.10;53.60;;;;;;5002571;28;20513;-67
2023/12/18 11:56:08;;;;;;;36.00;26.37;;;23.10;53.50;;;;;;5002043;28;20497;-70
2023/12/18 11:58:38;;;;;;;29.03;25.80;;;23.20;54.60;;;;;;5005565;28;20464;-71
2023/12/18 12:01:07;;;;;;;56.93;31.57;;;23.20;53.80;;;;;;5005465;28;20446;-72
2023/12/18 12:03:42;;;;;;;58.50;38.17;;;23.20;54.50;;;;;;5001075;28;20474;-71
2023/12/18 12:06:11;;;;;;;48.80;31.67;;;23.20;54.60;;;;;;4998502;28;20452;-70
2023/12/18 12:08:43;;;;;;;60.07;31.50;;;23.10;54.80;;;;;;5005699;28;20501;-70
2023/12/18 12:11:14;;;;;;;48.03;30.70;;;23.10;54.80;;;;;;5004880;28;20446;-72
2023/12/18 12:13:48;;;;;;;52.77;33.13;;;23.00;54.60;;;;;;5001988;28;20490;-71
2023/12/18 12:16:20;;;;;;;51.67;35.17;;;23.10;55.10;;;;;;5003204;28;20451;-71
2023/12/18 12:18:54;;;;;;;50.77;31.60;;;23.10;55.40;;;;;;5005352;28;20454;-71
2023/12/18 12:21:27;;;;;;;44.30;32.20;;;23.10;55.40;;;;;;4999862;28;20443;-68
2023/12/18 12:24:02;;;;;;;58.40;30.17;;;23.10;56.00;;;;;;5004235;28;20494;-69
2023/12/18 12:26:30;;;;;;;65.60;32.30;;;23.10;55.80;;;;;;5002220;28;20934;-68
2023/12/18 12:28:57;;;;;;;40.97;30.00;;;23.20;55.50;;;;;;5001909;28;20505;-69
2023/12/18 12:31:28;;;;;;;40.87;30.77;;;23.10;55.50;;;;;;5001328;28;20501;-69